Aérodrome :
LOGIN :

S'inscrire | Disclaimer

   EN    FR    IT 

 










Légende :    VFR   VFR Marginal   IFR   IFR Intensif   IFR Très Intensif
Visi : 
Plafond : 
>= 8 km
>= 3000ft
5 à 8 km
1000 à 3000 ft
1500m à 5 km
500 à 1000 ft
800 à 1500m
200 à 500 ft
< 800m
< 200 ft
Symboles :   Orages  Brouillard  Fortes neiges  Fortes précipitations  Vent > 20 kt
SIGMETs :   Divers  Orages  Givrage  Turbulence  Onde Orograph.  Cendres Volcan.






- Altitude de l'aérodrome : 375 ft
- Code IATA : MST


EHBK - Maastricht Aachen

DERNIER METAR :
  • 172225Z AUTO 23017KT 200V260 9999 SCT017 BKN021 BKN024 07/04 Q1017

METARs EXPIRÉS :
  • 172155Z AUTO 23015KT 200V280 9999 SCT020 OVC024 07/04 Q1017 NOSIG
  • 172125Z AUTO 23015KT 210V270 9999 SCT020 OVC023 07/04 Q1016 NOSIG
  • 172055Z AUTO 23015KT 200V270 9999 SCT023 OVC027 07/04 Q1016 NOSIG
  • 172025Z AUTO 23018KT 190V260 9999 BKN017 OVC020 08/04 Q1016 NOSIG
  • 171955Z AUTO 23019KT 200V260 9999 FEW021 SCT028 OVC037 08/04 Q1015 NOSIG

TAF TAF EHBK
Valide du 17 à 18h jusqu'au 19 à 00h UTC


171657Z 1718/1824 24018KT 9999 SCT040
TEMPO 1718/1803 24020G30KT 6000 SHRA SCT020CB
PROB30
TEMPO 1810/1820 6000 SHRA SCT025CB



MET'MAP, la Météo Aéronautique d'un coup d'oeil ! - Copyright ORBIFLY Décembre 2007 - Disclaimer

ORBIFLY MET'MAP TEAM :

Programmation & Développement : Alexandra Zaïnal
Sur une idée originale de : Baudouin d'Aumeries
Assistance à la programmation : Marc-Olivier Méhu
Soutien technique & logistique : Manuel Goepfert

Contact : metmap@orbifly.com




SOURCES & CREDITS :

   NOAA